Time;durP1;ratioP1;P1;durP2;ratioP2;P2;SDS_P1;SDS_P2;PMS_P1;PMS_P2;Temp;Humidity;BMP_temperature;BMP_pressure;BME280_temperature;BME280_humidity;BME280_pressure;Samples;Min_cycle;Max_cycle;Signal;HPM_P1;HPM_P2
2022/10/15 00:01:43;;;;;;;;;;;;;;;13.63;50.88;94776.41;4984847;28;20092;-79
2022/10/15 00:04:08;;;;;;;;;;;;;;;13.71;50.33;94773.44;5003078;28;20040;-78
2022/10/15 00:06:34;;;;;;;;;;;;;;;13.74;50.30;94772.19;5003614;28;19974;-78
2022/10/15 00:08:59;;;;;;;;;;;;;;;13.73;50.52;94778.59;5003125;28;19990;-79
2022/10/15 00:11:25;;;;;;;;;;;;;;;13.73;50.62;94765.22;5003498;28;20439;-79
2022/10/15 00:13:54;;;;;;;;;;;;;;;13.34;51.37;94762.63;4990776;28;19986;-79
2022/10/15 00:16:20;;;;;;;;;;;;;;;13.45;51.03;94759.25;4984231;28;20362;-79
2022/10/15 00:18:45;;;;;;;;;;;;;;;13.68;50.67;94761.34;4994294;28;19966;-78
2022/10/15 00:21:11;;;;;;;;;;;;;;;13.32;51.37;94757.47;4984510;28;19994;-78
2022/10/15 00:23:36;;;;;;;;;;;;;;;13.32;51.70;94752.13;5003136;28;20533;-79
2022/10/15 00:26:05;;;;;;;;;;;;;;;13.42;51.25;94752.47;4983938;28;20125;-79
2022/10/15 00:28:31;;;;;;;;;;;;;;;13.73;50.43;94754.50;5002205;28;20205;-78
2022/10/15 00:31:00;;;;;;;;;;;;;;;13.80;50.16;94755.25;4995450;28;20060;-79
2022/10/15 00:33:25;;;;;;;;;;;;;;;13.77;50.11;94750.34;4983367;28;20702;-78
2022/10/15 00:36:04;;;;;;;;;;;;;;;13.50;50.75;94755.94;5001703;28;19990;-78
2022/10/15 00:38:29;;;;;;;;;;;;;;;13.64;50.60;94753.97;5002090;28;19986;-79
2022/10/15 00:40:54;;;;;;;;;;;;;;;13.62;50.91;94746.16;4994814;28;19993;-78
2022/10/15 00:43:36;;;;;;;;;;;;;;;13.30;51.21;94751.56;4984360;28;20517;-79
2022/10/15 00:46:01;;;;;;;;;;;;;;;13.60;50.85;94750.88;5002075;28;19986;-79
2022/10/15 00:48:27;;;;;;;;;;;;;;;13.75;50.03;94741.72;5002334;28;19977;-78
2022/10/15 00:50:52;;;;;;;;;;;;;;;13.66;50.52;94746.53;4992850;28;19997;-79
2022/10/15 00:53:17;;;;;;;;;;;;;;;13.72;50.62;94747.50;4982511;28;20069;-78
2022/10/15 00:55:42;;;;;;;;;;;;;;;13.29;51.08;94740.03;4967783;28;20059;-78
2022/10/15 00:58:09;;;;;;;;;;;;;;;13.61;50.63;94751.72;4984076;28;20024;-78
2022/10/15 01:00:34;;;;;;;;;;;;;;;13.55;50.57;94743.53;4966433;28;20075;-78
2022/10/15 01:02:59;;;;;;;;;;;;;;;13.03;51.99;94744.50;5002243;28;20043;-79
2022/10/15 01:05:24;;;;;;;;;;;;;;;13.42;51.08;94741.78;4996244;28;20826;-78
2022/10/15 01:07:50;;;;;;;;;;;;;;;13.05;52.15;94737.09;4990744;28;19997;-78
2022/10/15 01:10:15;;;;;;;;;;;;;;;13.37;51.16;94741.63;5001834;28;20072;-79
2022/10/15 01:12:59;;;;;;;;;;;;;;;13.44;51.30;94733.56;4991466;28;20071;-78
2022/10/15 01:15:25;;;;;;;;;;;;;;;13.03;52.45;94741.84;5001952;28;19986;-78
2022/10/15 01:17:55;;;;;;;;;;;;;;;12.98;52.04;94736.28;4983026;28;20001;-78
2022/10/15 01:20:35;;;;;;;;;;;;;;;12.71;53.06;94723.09;4983568;28;19970;-78
2022/10/15 01:23:19;;;;;;;;;;;;;;;13.24;51.52;94721.16;4967757;28;19969;-79
2022/10/15 01:25:50;;;;;;;;;;;;;;;13.15;51.96;94722.44;5000587;28;20234;-79
2022/10/15 01:28:31;;;;;;;;;;;;;;;12.92;52.48;94719.28;4978001;28;19970;-78
2022/10/15 01:31:17;;;;;;;;;;;;;;;13.02;52.54;94718.03;4988632;28;20032;-78
2022/10/15 01:33:50;;;;;;;;;;;;;;;13.07;52.01;94712.84;5000834;28;19990;-79
2022/10/15 01:36:21;;;;;;;;;;;;;;;12.95;52.65;94727.91;5001336;28;19993;-79
2022/10/15 01:38:49;;;;;;;;;;;;;;;13.17;51.70;94723.06;5001535;28;20379;-79
2022/10/15 01:41:14;;;;;;;;;;;;;;;13.38;50.97;94724.56;4983564;28;20355;-78
2022/10/15 01:43:39;;;;;;;;;;;;;;;13.39;50.97;94728.84;5001877;28;19977;-79
2022/10/15 01:46:05;;;;;;;;;;;;;;;13.20;51.58;94727.97;5001583;28;20000;-79
2022/10/15 01:48:30;;;;;;;;;;;;;;;13.12;51.26;94730.91;4974625;28;19986;-78
2022/10/15 01:50:57;;;;;;;;;;;;;;;12.75;52.89;94723.50;4983457;28;20569;-79
2022/10/15 01:53:25;;;;;;;;;;;;;;;12.47;53.54;94732.63;4992622;28;19998;-79
2022/10/15 01:55:55;;;;;;;;;;;;;;;12.28;53.89;94729.84;4967714;28;20628;-78
2022/10/15 01:58:20;;;;;;;;;;;;;;;12.42;53.65;94723.41;4983328;28;20236;-78
2022/10/15 02:00:45;;;;;;;;;;;;;;;12.58;53.57;94718.63;4983313;28;20469;-78
2022/10/15 02:03:11;;;;;;;;;;;;;;;12.65;53.58;94714.06;4976376;28;19981;-79
2022/10/15 02:05:56;;;;;;;;;;;;;;;12.66;52.93;94720.25;5001084;28;19990;-79
2022/10/15 02:08:30;;;;;;;;;;;;;;;12.65;52.76;94729.31;4975478;28;19973;-79
2022/10/15 02:11:03;;;;;;;;;;;;;;;12.45;53.53;94724.88;4983540;28;19965;-79
2022/10/15 02:13:34;;;;;;;;;;;;;;;12.35;53.62;94727.16;5000779;28;20066;-79
2022/10/15 02:16:25;;;;;;;;;;;;;;;11.83;54.88;94726.03;4983173;28;20447;-78
2022/10/15 02:19:04;;;;;;;;;;;;;;;11.90;54.49;94723.38;4969554;28;20001;-78
2022/10/15 02:21:43;;;;;;;;;;;;;;;12.04;54.20;94718.81;4982983;28;19990;-79
2022/10/15 02:24:16;;;;;;;;;;;;;;;11.82;54.65;94710.22;4992149;28;20439;-79
2022/10/15 02:26:41;;;;;;;;;;;;;;;12.03;54.34;94711.81;4993484;28;19970;-78
2022/10/15 02:29:09;;;;;;;;;;;;;;;11.99;54.18;94713.28;4992007;28;20024;-79
2022/10/15 02:31:34;;;;;;;;;;;;;;;12.11;53.83;94708.16;4982872;28;20011;-79
2022/10/15 02:34:01;;;;;;;;;;;;;;;11.94;54.50;94707.75;4982140;28;20218;-78
2022/10/15 02:36:26;;;;;;;;;;;;;;;11.72;54.71;94706.16;4983847;28;19989;-79
2022/10/15 02:38:51;;;;;;;;;;;;;;;11.61;55.47;94707.63;4982841;28;20154;-78
2022/10/15 02:41:16;;;;;;;;;;;;;;;11.79;54.35;94706.13;4982301;28;20497;-79
2022/10/15 02:43:42;;;;;;;;;;;;;;;11.71;54.44;94707.19;4968387;28;20032;-78
2022/10/15 02:46:07;;;;;;;;;;;;;;;11.65;54.54;94705.34;4991324;28;19994;-78
2022/10/15 02:48:33;;;;;;;;;;;;;;;11.57;54.82;94703.72;4965952;28;19985;-79
2022/10/15 02:50:58;;;;;;;;;;;;;;;11.29;55.72;94712.72;4999891;28;20001;-78
2022/10/15 02:53:23;;;;;;;;;;;;;;;11.33;56.02;94707.81;4999595;28;19997;-79
2022/10/15 02:55:48;;;;;;;;;;;;;;;11.37;55.75;94715.22;5000732;28;20725;-79
2022/10/15 02:58:14;;;;;;;;;;;;;;;11.51;55.32;94715.19;4999546;28;20033;-79
2022/10/15 03:00:39;;;;;;;;;;;;;;;11.47;55.54;94719.31;4999921;28;20365;-79
2022/10/15 03:03:04;;;;;;;;;;;;;;;11.57;55.46;94717.06;5000186;28;19976;-79
2022/10/15 03:05:29;;;;;;;;;;;;;;;11.50;55.29;94713.56;4977995;28;20072;-78
2022/10/15 03:07:56;;;;;;;;;;;;;;;11.71;55.03;94714.34;5000223;28;20476;-79
2022/10/15 03:10:21;;;;;;;;;;;;;;;11.99;54.18;94715.94;4987623;28;19994;-79
2022/10/15 03:12:46;;;;;;;;;;;;;;;12.01;54.17;94713.91;5000251;28;20474;-79
2022/10/15 03:15:11;;;;;;;;;;;;;;;12.27;53.52;94722.84;5000055;28;19990;-79
2022/10/15 03:17:37;;;;;;;;;;;;;;;12.21;53.35;94718.38;4980775;28;20077;-78
2022/10/15 03:20:02;;;;;;;;;;;;;;;12.32;53.15;94722.22;5000165;28;19974;-79
2022/10/15 03:22:28;;;;;;;;;;;;;;;12.15;53.62;94728.88;4981854;28;20001;-79
2022/10/15 03:24:53;;;;;;;;;;;;;;;12.21;53.34;94726.38;4999923;28;19997;-79
2022/10/15 03:27:18;;;;;;;;;;;;;;;12.36;53.48;94721.59;5000129;28;19973;-79
2022/10/15 03:29:43;;;;;;;;;;;;;;;12.49;52.63;94730.59;4964971;28;19993;-78
2022/10/15 03:32:09;;;;;;;;;;;;;;;12.50;52.72;94732.22;4965488;28;19973;-79
2022/10/15 03:34:34;;;;;;;;;;;;;;;12.26;52.97;94731.91;5001148;28;19966;-78
2022/10/15 03:36:59;;;;;;;;;;;;;;;12.37;52.96;94733.91;4999385;28;19998;-79
2022/10/15 03:39:24;;;;;;;;;;;;;;;12.36;52.53;94732.28;5000263;28;20025;-79
2022/10/15 03:41:51;;;;;;;;;;;;;;;12.32;53.02;94733.75;4999771;28;20462;-78
2022/10/15 03:44:16;;;;;;;;;;;;;;;12.40;52.65;94736.16;4999498;28;19985;-78
2022/10/15 03:46:42;;;;;;;;;;;;;;;12.46;52.51;94729.16;4987034;28;19975;-78
2022/10/15 03:49:07;;;;;;;;;;;;;;;12.39;51.82;94731.88;4982604;28;20325;-79
2022/10/15 03:51:32;;;;;;;;;;;;;;;12.53;52.02;94721.13;4999983;28;20032;-79
2022/10/15 03:53:57;;;;;;;;;;;;;;;12.66;51.90;94728.25;4998157;28;19994;-79
2022/10/15 03:56:22;;;;;;;;;;;;;;;12.65;51.85;94723.97;4999592;28;19997;-79
2022/10/15 03:58:48;;;;;;;;;;;;;;;12.51;52.30;94716.00;4981761;28;20013;-79
2022/10/15 04:01:14;;;;;;;;;;;;;;;12.62;52.07;94714.50;4988789;28;19990;-79
2022/10/15 04:03:39;;;;;;;;;;;;;;;12.64;51.92;94720.47;4998365;28;20069;-78
2022/10/15 04:06:05;;;;;;;;;;;;;;;12.36;52.27;94723.44;4999438;28;20092;-79
2022/10/15 04:08:30;;;;;;;;;;;;;;;12.55;52.03;94727.09;4999570;28;20252;-78
2022/10/15 04:10:56;;;;;;;;;;;;;;;12.65;51.96;94738.09;4999457;28;19993;-79
2022/10/15 04:13:21;;;;;;;;;;;;;;;12.46;52.08;94733.69;4984007;28;20405;-78
2022/10/15 04:15:46;;;;;;;;;;;;;;;12.58;51.75;94736.50;5003573;28;20272;-78
2022/10/15 04:18:11;;;;;;;;;;;;;;;12.69;51.63;94741.19;4984576;28;20001;-79
2022/10/15 04:20:37;;;;;;;;;;;;;;;12.39;52.33;94750.56;4994048;28;20402;-78
2022/10/15 04:23:02;;;;;;;;;;;;;;;12.38;52.40;94751.56;5001797;28;19969;-79
2022/10/15 04:25:27;;;;;;;;;;;;;;;12.39;52.46;94752.41;5000461;28;19994;-79
2022/10/15 04:27:52;;;;;;;;;;;;;;;12.26;52.75;94748.75;5003214;28;19984;-78
2022/10/15 04:30:18;;;;;;;;;;;;;;;12.09;53.18;94756.38;4993936;28;20247;-78
2022/10/15 04:32:43;;;;;;;;;;;;;;;12.39;52.69;94755.06;5002445;28;19997;-79
2022/10/15 04:35:08;;;;;;;;;;;;;;;12.44;52.28;94743.75;5002890;28;20389;-79
2022/10/15 04:37:34;;;;;;;;;;;;;;;12.57;52.43;94746.38;4972517;28;20311;-78
2022/10/15 04:39:59;;;;;;;;;;;;;;;12.41;52.45;94739.66;5003079;28;19988;-79
2022/10/15 04:42:24;;;;;;;;;;;;;;;12.60;51.94;94740.59;4993988;28;20061;-79
2022/10/15 04:44:49;;;;;;;;;;;;;;;12.67;51.60;94738.72;5002471;28;20000;-79
2022/10/15 04:47:14;;;;;;;;;;;;;;;12.75;51.53;94739.53;5000855;28;20638;-79
2022/10/15 04:49:40;;;;;;;;;;;;;;;12.64;51.89;94728.47;5002001;28;20287;-78
2022/10/15 04:52:05;;;;;;;;;;;;;;;12.71;51.63;94727.63;4992919;28;19997;-79
2022/10/15 04:54:30;;;;;;;;;;;;;;;12.73;51.50;94729.06;5001991;28;19994;-79
2022/10/15 04:56:56;;;;;;;;;;;;;;;12.76;50.87;94727.78;4984022;28;20117;-79
2022/10/15 04:59:21;;;;;;;;;;;;;;;12.87;50.57;94742.31;4967446;28;19970;-79
2022/10/15 05:01:46;;;;;;;;;;;;;;;12.82;50.37;94734.97;4983777;28;20033;-78
2022/10/15 05:04:11;;;;;;;;;;;;;;;12.76;50.59;94723.28;5001949;28;20341;-79
2022/10/15 05:06:37;;;;;;;;;;;;;;;12.72;51.13;94715.91;4984439;28;19974;-79
2022/10/15 05:09:02;;;;;;;;;;;;;;;12.75;51.04;94705.59;4990056;28;19997;-78
2022/10/15 05:11:27;;;;;;;;;;;;;;;12.76;51.30;94706.44;4994660;28;20400;-79
2022/10/15 05:13:56;;;;;;;;;;;;;;;12.79;50.84;94714.03;4983800;28;20005;-79
2022/10/15 05:16:24;;;;;;;;;;;;;;;12.99;51.07;94742.47;4992805;28;20454;-79
2022/10/15 05:18:50;;;;;;;;;;;;;;;13.05;50.28;94745.13;4983894;28;19973;-79
2022/10/15 05:21:16;;;;;;;;;;;;;;;13.01;50.18;94735.91;5000588;28;19990;-79
2022/10/15 05:23:42;;;;;;;;;;;;;;;13.13;49.68;94744.03;5002108;28;20291;-78
2022/10/15 05:26:09;;;;;;;;;;;;;;;13.08;49.76;94743.88;4989213;28;20524;-79
2022/10/15 05:28:34;;;;;;;;;;;;;;;11.93;52.18;94752.25;5001303;28;19989;-78
2022/10/15 05:31:06;;;;;;;;;;;;;;;12.08;52.67;94762.75;4982835;28;19972;-78
2022/10/15 05:33:32;;;;;;;;;;;;;;;11.52;54.55;94767.47;4983575;28;20054;-78
2022/10/15 05:35:57;;;;;;;;;;;;;;;12.49;51.70;94763.47;5001681;28;20434;-79
2022/10/15 05:38:22;;;;;;;;;;;;;;;12.43;51.61;94769.63;4983535;28;20064;-79
2022/10/15 05:40:48;;;;;;;;;;;;;;;12.72;51.00;94761.31;4991415;28;20039;-78
2022/10/15 05:43:13;;;;;;;;;;;;;;;12.73;50.95;94777.13;5001683;28;19974;-79
2022/10/15 05:45:38;;;;;;;;;;;;;;;12.52;51.78;94764.88;5001062;28;19996;-78
2022/10/15 05:48:04;;;;;;;;;;;;;;;12.72;50.96;94772.00;4995094;28;20017;-78
2022/10/15 05:50:29;;;;;;;;;;;;;;;12.74;51.19;94775.25;5000642;28;20044;-79
2022/10/15 05:52:54;;;;;;;;;;;;;;;12.76;51.04;94774.03;4999723;28;20001;-78
2022/10/15 05:55:19;;;;;;;;;;;;;;;12.60;51.69;94772.66;5001406;28;19990;-78
2022/10/15 05:57:44;;;;;;;;;;;;;;;12.85;50.99;94773.78;5001174;28;20024;-78
2022/10/15 06:00:10;;;;;;;;;;;;;;;12.41;52.06;94780.50;5000999;28;19977;-78
2022/10/15 06:02:35;;;;;;;;;;;;;;;11.68;54.14;94800.06;5001073;28;20037;-79
2022/10/15 06:05:01;;;;;;;;;;;;;;;12.31;52.35;94800.66;5001014;28;20021;-78
2022/10/15 06:07:26;;;;;;;;;;;;;;;11.07;55.96;94799.97;5000991;28;19978;-79
2022/10/15 06:09:51;;;;;;;;;;;;;;;11.80;53.92;94798.44;4987917;28;20481;-78
2022/10/15 06:12:17;;;;;;;;;;;;;;;11.96;53.16;94809.69;4982731;28;20001;-78
2022/10/15 06:14:42;;;;;;;;;;;;;;;12.00;52.92;94802.97;4979653;28;20332;-78
2022/10/15 06:17:07;;;;;;;;;;;;;;;11.74;53.89;94805.44;5000195;28;19997;-78
2022/10/15 06:19:32;;;;;;;;;;;;;;;11.67;53.67;94803.78;4982992;28;20088;-78
2022/10/15 06:21:58;;;;;;;;;;;;;;;11.74;53.53;94807.28;5000466;28;20002;-79
2022/10/15 06:24:23;;;;;;;;;;;;;;;11.94;53.21;94809.94;5000430;28;19974;-79
2022/10/15 06:26:48;;;;;;;;;;;;;;;11.29;55.02;94811.31;4996811;28;20009;-78
2022/10/15 06:29:14;;;;;;;;;;;;;;;12.01;52.72;94804.59;4992556;28;20012;-78
2022/10/15 06:31:39;;;;;;;;;;;;;;;12.14;52.52;94803.78;4982531;28;20612;-79
2022/10/15 06:34:04;;;;;;;;;;;;;;;12.23;52.40;94802.53;4985668;28;19994;-78
2022/10/15 06:36:29;;;;;;;;;;;;;;;11.44;53.65;94799.66;4982441;28;20088;-79
2022/10/15 06:38:55;;;;;;;;;;;;;;;11.33;54.35;94801.91;4993507;28;20035;-78
2022/10/15 06:41:20;;;;;;;;;;;;;;;11.79;53.53;94796.78;4982624;28;20662;-79
2022/10/15 06:43:47;;;;;;;;;;;;;;;12.21;52.11;94799.22;4982323;28;20001;-79
2022/10/15 06:46:12;;;;;;;;;;;;;;;12.50;51.21;94796.28;5000167;28;20028;-79
2022/10/15 06:48:38;;;;;;;;;;;;;;;12.68;50.84;94803.63;4999185;28;20037;-79
2022/10/15 06:51:03;;;;;;;;;;;;;;;12.10;51.93;94805.22;4981768;28;19996;-79
2022/10/15 06:53:28;;;;;;;;;;;;;;;12.80;50.63;94809.13;5000294;28;20043;-79
2022/10/15 06:55:57;;;;;;;;;;;;;;;12.82;50.27;94809.75;4999222;28;20372;-79
2022/10/15 06:58:22;;;;;;;;;;;;;;;13.05;49.84;94819.94;4991915;28;19998;-79
2022/10/15 07:00:47;;;;;;;;;;;;;;;13.11;49.58;94828.13;4982501;28;19999;-79
2022/10/15 07:03:13;;;;;;;;;;;;;;;12.87;49.90;94825.13;5000615;28;20229;-79
2022/10/15 07:05:38;;;;;;;;;;;;;;;11.68;52.77;94829.41;5000054;28;19993;-79
2022/10/15 07:08:04;;;;;;;;;;;;;;;11.93;52.67;94832.28;4982123;28;19979;-78
2022/10/15 07:10:29;;;;;;;;;;;;;;;12.53;51.38;94831.41;5000417;28;19970;-78
2022/10/15 07:12:54;;;;;;;;;;;;;;;12.52;51.36;94835.09;4981150;28;20089;-79
2022/10/15 07:15:20;;;;;;;;;;;;;;;12.79;50.86;94831.53;5000591;28;20620;-78
2022/10/15 07:17:52;;;;;;;;;;;;;;;12.75;50.57;94828.44;4999392;28;19990;-78
2022/10/15 07:20:17;;;;;;;;;;;;;;;12.85;49.91;94837.88;4987676;28;19961;-79
2022/10/15 07:22:42;;;;;;;;;;;;;;;13.07;50.08;94837.59;4982279;28;19977;-78
2022/10/15 07:25:09;;;;;;;;;;;;;;;12.24;51.21;94841.53;4999141;28;20016;-78
2022/10/15 07:27:34;;;;;;;;;;;;;;;13.20;49.70;94847.41;4987899;28;19974;-78
2022/10/15 07:29:59;;;;;;;;;;;;;;;12.52;50.71;94845.78;4981317;28;20007;-78
2022/10/15 07:32:24;;;;;;;;;;;;;;;12.61;51.43;94849.03;4979512;28;20280;-78
2022/10/15 07:34:50;;;;;;;;;;;;;;;12.94;50.70;94844.63;5000566;28;20690;-78
2022/10/15 07:37:15;;;;;;;;;;;;;;;13.29;49.34;94843.44;4981543;28;19998;-78
2022/10/15 07:39:40;;;;;;;;;;;;;;;13.22;49.44;94858.72;4999824;28;20423;-78
2022/10/15 07:42:05;;;;;;;;;;;;;;;13.39;48.87;94856.34;4978724;28;20633;-78
2022/10/15 07:44:31;;;;;;;;;;;;;;;13.43;49.00;94857.59;4981916;28;20194;-78
2022/10/15 07:46:56;;;;;;;;;;;;;;;13.35;49.14;94855.97;4993610;28;19970;-78
2022/10/15 07:49:21;;;;;;;;;;;;;;;11.94;53.15;94873.13;5003311;28;20594;-78
2022/10/15 07:51:46;;;;;;;;;;;;;;;12.98;50.48;94872.53;5003636;28;19974;-78
2022/10/15 07:54:12;;;;;;;;;;;;;;;13.30;49.92;94864.63;4983565;28;19990;-68
2022/10/15 07:56:37;;;;;;;;;;;;;;;13.30;49.77;94861.94;5002797;28;20655;-73
2022/10/15 07:59:02;;;;;;;;;;;;;;;12.95;50.31;94861.47;5001337;28;20346;-73
2022/10/15 08:01:27;;;;;;;;;;;;;;;12.79;51.22;94856.38;5002304;28;19994;-72
2022/10/15 08:03:53;;;;;;;;;;;;;;;13.16;49.97;94866.53;5003028;28;20896;-72
2022/10/15 08:06:18;;;;;;;;;;;;;;;12.85;50.37;94864.59;4982968;28;19993;-74
2022/10/15 08:08:43;;;;;;;;;;;;;;;13.23;50.03;94863.03;4997208;28;19989;-70
2022/10/15 08:11:12;;;;;;;;;;;;;;;12.45;52.41;94863.69;5000933;28;19985;-73
2022/10/15 08:13:41;;;;;;;;;;;;;;;13.37;48.45;94859.25;5001097;28;19997;-67
2022/10/15 08:16:09;;;;;;;;;;;;;;;13.07;51.10;94861.66;5001785;28;19990;-68
2022/10/15 08:18:36;;;;;;;;;;;;;;;13.55;49.33;94863.88;4999486;28;20820;-68
2022/10/15 08:21:01;;;;;;;;;;;;;;;13.77;48.36;94862.72;5000902;28;19990;-79
2022/10/15 08:23:27;;;;;;;;;;;;;;;13.75;49.25;94862.91;5003331;28;19966;-78
2022/10/15 08:25:52;;;;;;;;;;;;;;;13.85;49.12;94866.97;4985317;28;20040;-78
2022/10/15 08:28:17;;;;;;;;;;;;;;;14.26;47.99;94868.31;4991782;28;20065;-78
2022/10/15 08:30:42;;;;;;;;;;;;;;;14.39;47.84;94872.72;4984912;28;19982;-78
2022/10/15 08:33:08;;;;;;;;;;;;;;;13.48;50.44;94862.25;5002515;28;19990;-79
2022/10/15 08:35:35;;;;;;;;;;;;;;;13.85;49.29;94866.97;4991834;28;20075;-78
2022/10/15 08:38:01;;;;;;;;;;;;;;;14.15;48.56;94861.81;5001745;28;19993;-79
2022/10/15 08:40:28;;;;;;;;;;;;;;;13.70;49.66;94874.25;5002253;28;19980;-78
2022/10/15 08:42:53;;;;;;;;;;;;;;;12.39;53.60;94873.34;4997178;28;20016;-78
2022/10/15 08:45:21;;;;;;;;;;;;;;;12.78;52.14;94872.59;4984076;28;20313;-78
2022/10/15 08:48:06;;;;;;;;;;;;;;;13.67;50.41;94876.56;4984938;28;19970;-78
2022/10/15 08:50:37;;;;;;;;;;;;;;;13.97;49.38;94875.16;4994755;28;20009;-78
2022/10/15 08:53:02;;;;;;;;;;;;;;;14.12;47.80;94872.97;4981240;28;20408;-78
2022/10/15 08:55:28;;;;;;;;;;;;;;;14.39;48.66;94871.91;4999506;28;20006;-78
2022/10/15 08:58:13;;;;;;;;;;;;;;;14.48;48.13;94873.25;4980977;28;20020;-78
2022/10/15 09:00:47;;;;;;;;;;;;;;;13.42;50.38;94879.97;5001958;28;20056;-79
2022/10/15 09:03:27;;;;;;;;;;;;;;;13.57;50.55;94874.34;4992847;28;20329;-78
2022/10/15 09:05:56;;;;;;;;;;;;;;;14.08;49.26;94869.09;5001388;28;20530;-78
2022/10/15 09:08:24;;;;;;;;;;;;;;;11.58;56.17;94880.47;5001578;28;19970;-78
2022/10/15 09:10:56;;;;;;;;;;;;;;;12.98;52.03;94869.06;4984509;28;19966;-78
2022/10/15 09:13:24;;;;;;;;;;;;;;;13.39;51.15;94872.38;4982185;28;20068;-78
2022/10/15 09:15:50;;;;;;;;;;;;;;;13.46;51.65;94870.50;5001938;28;20319;-78
2022/10/15 09:18:17;;;;;;;;;;;;;;;14.05;49.93;94873.00;4991252;28;19984;-78
2022/10/15 09:20:42;;;;;;;;;;;;;;;13.11;52.20;94879.72;4967327;28;20129;-78
2022/10/15 09:23:13;;;;;;;;;;;;;;;13.89;50.50;94876.22;4983948;28;20225;-78
2022/10/15 09:25:38;;;;;;;;;;;;;;;12.00;55.96;94878.44;4983529;28;19993;-78
2022/10/15 09:28:07;;;;;;;;;;;;;;;13.34;51.61;94882.91;4967817;28;19984;-78
2022/10/15 09:30:45;;;;;;;;;;;;;;;13.42;52.05;94883.47;4983762;28;20560;-78
2022/10/15 09:33:25;;;;;;;;;;;;;;;12.17;54.97;94891.41;4983399;28;20082;-78
2022/10/15 09:36:03;;;;;;;;;;;;;;;13.21;52.30;94889.13;5001768;28;19986;-79
2022/10/15 09:38:47;;;;;;;;;;;;;;;12.42;54.55;94885.44;5001311;28;19997;-78
2022/10/15 09:41:15;;;;;;;;;;;;;;;12.72;53.63;94884.16;5001170;28;19994;-78
2022/10/15 09:43:41;;;;;;;;;;;;;;;13.39;51.89;94883.91;5001274;28;19985;-78
2022/10/15 09:46:07;;;;;;;;;;;;;;;13.76;51.52;94885.13;4992717;28;20203;-78
2022/10/15 09:48:34;;;;;;;;;;;;;;;11.83;55.60;94883.38;4983187;28;20036;-78
2022/10/15 09:51:10;;;;;;;;;;;;;;;13.68;51.53;94891.56;4983241;28;20002;-78
2022/10/15 09:53:44;;;;;;;;;;;;;;;13.76;50.76;94883.28;4981650;28;19989;-78
2022/10/15 09:56:14;;;;;;;;;;;;;;;13.75;51.58;94888.84;4981815;28;19985;-78
2022/10/15 09:58:43;;;;;;;;;;;;;;;12.20;55.82;94887.53;4986203;28;19974;-78
2022/10/15 10:01:15;;;;;;;;;;;;;;;12.94;53.64;94879.34;4982046;28;19997;-78
2022/10/15 10:03:41;;;;;;;;;;;;;;;13.52;52.14;94879.50;4998517;28;20009;-78
2022/10/15 10:06:06;;;;;;;;;;;;;;;13.50;52.16;94881.59;4983004;28;20493;-78
2022/10/15 10:08:33;;;;;;;;;;;;;;;13.70;51.34;94887.63;4981092;28;20238;-78
2022/10/15 10:11:03;;;;;;;;;;;;;;;13.78;51.54;94869.69;4988346;28;20426;-78
2022/10/15 10:13:45;;;;;;;;;;;;;;;13.39;52.21;94865.19;4993032;28;20048;-78
2022/10/15 10:16:11;;;;;;;;;;;;;;;13.44;52.60;94859.22;4982615;28;20502;-77
2022/10/15 10:18:36;;;;;;;;;;;;;;;13.11;53.34;94873.56;4991737;28;20065;-78
2022/10/15 10:21:05;;;;;;;;;;;;;;;12.23;55.61;94874.56;4982313;28;19990;-78
2022/10/15 10:23:33;;;;;;;;;;;;;;;13.26;52.89;94879.44;5000919;28;20073;-78
2022/10/15 10:25:59;;;;;;;;;;;;;;;13.76;51.87;94877.94;4992775;28;19990;-78
2022/10/15 10:28:33;;;;;;;;;;;;;;;12.88;54.43;94880.19;4982270;28;19970;-78
2022/10/15 10:31:07;;;;;;;;;;;;;;;13.23;53.38;94874.53;5001109;28;20305;-78
2022/10/15 10:33:33;;;;;;;;;;;;;;;13.31;53.54;94884.16;4982601;28;20084;-78
2022/10/15 10:35:58;;;;;;;;;;;;;;;13.56;52.38;94878.03;5000357;28;20087;-78
2022/10/15 10:38:24;;;;;;;;;;;;;;;13.94;52.00;94879.88;4980887;28;20326;-78
2022/10/15 10:40:50;;;;;;;;;;;;;;;13.94;51.41;94874.53;4982659;28;20470;-79
2022/10/15 10:43:15;;;;;;;;;;;;;;;12.97;54.59;94875.44;4982747;28;20230;-78
2022/10/15 10:45:56;;;;;;;;;;;;;;;13.52;52.55;94874.16;5000030;28;19990;-79
2022/10/15 10:48:23;;;;;;;;;;;;;;;14.17;51.32;94873.13;4999401;28;20327;-78
2022/10/15 10:50:48;;;;;;;;;;;;;;;13.74;52.60;94874.66;4993223;28;20000;-79
2022/10/15 10:53:17;;;;;;;;;;;;;;;14.28;51.19;94873.44;4992460;28;20391;-78
2022/10/15 10:55:42;;;;;;;;;;;;;;;13.19;53.77;94867.97;4982266;28;19993;-79
2022/10/15 10:58:08;;;;;;;;;;;;;;;14.06;51.97;94865.78;4985740;28;19990;-78
2022/10/15 11:00:40;;;;;;;;;;;;;;;14.59;50.19;94864.47;4980933;28;20521;-79
2022/10/15 11:03:06;;;;;;;;;;;;;;;14.33;51.21;94860.22;5000512;28;19970;-78
2022/10/15 11:05:32;;;;;;;;;;;;;;;13.71;52.72;94869.75;4982026;28;20116;-78
2022/10/15 11:08:09;;;;;;;;;;;;;;;12.86;55.14;94859.03;4987470;28;19970;-79
2022/10/15 11:10:45;;;;;;;;;;;;;;;13.05;54.16;94854.66;4982378;28;20095;-79
2022/10/15 11:13:13;;;;;;;;;;;;;;;13.03;53.82;94853.25;4956259;28;20036;-78
2022/10/15 11:15:43;;;;;;;;;;;;;;;13.89;52.52;94852.97;4999774;28;19998;-78
2022/10/15 11:18:21;;;;;;;;;;;;;;;13.36;53.49;94852.25;4992095;28;20009;-78
2022/10/15 11:20:55;;;;;;;;;;;;;;;13.95;52.78;94861.97;4990259;28;20000;-78
2022/10/15 11:23:42;;;;;;;;;;;;;;;13.61;53.83;94859.53;5004289;28;19969;-78
2022/10/15 11:26:17;;;;;;;;;;;;;;;14.07;52.34;94857.56;5003618;28;19993;-79
2022/10/15 11:29:01;;;;;;;;;;;;;;;13.93;53.03;94854.16;5003807;28;20004;-79
2022/10/15 11:31:38;;;;;;;;;;;;;;;13.50;54.80;94855.66;5003894;28;20012;-79
2022/10/15 11:34:30;;;;;;;;;;;;;;;14.32;52.79;94853.22;4994671;28;19989;-77
2022/10/15 11:37:02;;;;;;;;;;;;;;;13.26;55.65;94850.03;5000108;28;20322;-79
2022/10/15 11:39:28;;;;;;;;;;;;;;;13.30;55.82;94845.09;4994439;28;20000;-79
2022/10/15 11:41:53;;;;;;;;;;;;;;;13.48;54.52;94848.88;4985651;28;20001;-80
2022/10/15 11:44:18;;;;;;;;;;;;;;;14.71;51.71;94845.81;5003018;28;20004;-80
2022/10/15 11:47:02;;;;;;;;;;;;;;;14.81;50.78;94847.19;5004150;28;19966;-80
2022/10/15 11:49:39;;;;;;;;;;;;;;;14.40;52.23;94849.44;5004384;28;20001;-80
2022/10/15 11:52:10;;;;;;;;;;;;;;;14.92;50.18;94840.25;5005770;28;20119;-79
2022/10/15 11:54:37;;;;;;;;;;;;;;;15.23;50.60;94836.56;4988253;28;20028;-78
2022/10/15 11:57:02;;;;;;;;;;;;;;;14.11;52.88;94841.06;4985520;28;20087;-80
2022/10/15 11:59:28;;;;;;;;;;;;;;;15.00;51.84;94837.28;4990055;28;20065;-79
2022/10/15 12:01:54;;;;;;;;;;;;;;;14.69;49.49;94821.09;5004465;28;20203;-79
2022/10/15 12:04:39;;;;;;;;;;;;;;;15.09;51.19;94832.41;4986547;28;19965;-79
2022/10/15 12:07:05;;;;;;;;;;;;;;;14.31;53.73;94822.94;4995601;28;20218;-80
2022/10/15 12:09:33;;;;;;;;;;;;;;;15.34;51.29;94818.06;5003182;28;20051;-75
2022/10/15 12:12:01;;;;;;;;;;;;;;;15.33;50.42;94822.59;4989750;28;20219;-76
2022/10/15 12:14:30;;;;;;;;;;;;;;;13.60;55.94;94824.97;4988212;28;19985;-75
2022/10/15 12:17:01;;;;;;;;;;;;;;;15.34;49.91;94813.50;4986685;28;20076;-76
2022/10/15 12:19:39;;;;;;;;;;;;;;;15.41;51.05;94808.06;5011324;28;20003;-75
2022/10/15 12:22:10;;;;;;;;;;;;;;;14.50;51.39;94817.63;5007151;28;20000;-76
2022/10/15 12:24:39;;;;;;;;;;;;;;;15.33;51.41;94816.44;4984957;28;20303;-76
2022/10/15 12:27:23;;;;;;;;;;;;;;;15.43;50.82;94814.00;5003577;28;20141;-75
2022/10/15 12:29:48;;;;;;;;;;;;;;;15.64;50.18;94825.31;5004221;28;20063;-76
2022/10/15 12:32:26;;;;;;;;;;;;;;;15.69;49.28;94814.69;4988165;28;19974;-76
2022/10/15 12:34:55;;;;;;;;;;;;;;;15.89;49.63;94810.88;4985884;28;20001;-80
2022/10/15 12:37:21;;;;;;;;;;;;;;;15.22;50.97;94818.84;5002849;28;20008;-79
2022/10/15 12:39:46;;;;;;;;;;;;;;;15.80;50.03;94812.22;5005111;28;20440;-80
2022/10/15 12:42:22;;;;;;;;;;;;;;;14.71;52.51;94804.81;4985581;28;19989;-79
2022/10/15 12:44:47;;;;;;;;;;;;;;;15.49;50.93;94802.38;4985263;28;20016;-79
2022/10/15 12:47:12;;;;;;;;;;;;;;;15.66;50.49;94807.09;5003953;28;20445;-79
2022/10/15 12:49:41;;;;;;;;;;;;;;;15.93;49.47;94795.94;5002712;28;20211;-79
2022/10/15 12:52:29;;;;;;;;;;;;;;;15.84;49.71;94802.69;5001357;28;20670;-80